Portada
METAR-TAF:

METAR-TAF

Aeroports :

Zagreb, Croàcia

latitud: 45-44N, longitud: 016-04E, altitud: 106 m

Observació

L'informe es va fer fa 15 minuts, a les 04:30 UTC
Vent 1 kt amb direcció variable
Temperatura -2°C
Humitat 93%
Pressió 1016 hPa
Visibilitat 10 km o més
sense núvols per sota de 1500 mi sense presència de cumulonimbus.

METAR: LDZA 270430Z VRB01KT CAVOK M02/M03 Q1016 NOSIG

Hora: 05:45 (04:45 UTC)

Pronòstic

L'informe es va fer fa 3 hores i 46 minuts, a les 00:59 UTC
Pronòstic vàlid del 27 a les 00 UTC al 28 a les 00 UTC
Vent 6 kt del Oest/Sud-Oest
Visibilitat: 6000 m
Temporalment
l' 27 a les 00 UTC al 27 a les 11 UTC
Visibilitat: 3000 m
Cel ennuvolat a una alçada de 200 ft
boirina
Probabilitat 30%
l' 27 a les 02 UTC al 27 a les 09 UTC
Vent 2 kt amb direcció variable
Visibilitat: 0200 m
a una alçada de 100 ft
boira gebradora

TAF: LDZA 270059Z 2700/2800 24006KT 6000 NSC TX05/2712Z TNM03/2705Z TEMPO 2700/2711 3000 BR BKN002 PROB30 2702/2709 VRB02KT 0200 FZFG VV001

Observacions i pronòstics meteorològics de més de 4000 aeroports (METAR i TAF).

Les estacions disponibles són els punts grocs i vermells al mapa.

Posi el ratolí al punt desitjat per veure el nom de l'estació.

Feu clic per veure les observacions i els pronòstics meteorològics.

Per canviar el mapa: feu clic els botons verds amb una creu de color negre per apropar; al botó verd amb un guió per allunyar la imatge; o en les fletxes verdes per a mapes adjacents.


METAR-TAF: